Terminal Aerodrome Forecast
Issued by NWS Goodland, KS

Home | Current Version | Previous Version | Text Only | Print | Product List | Glossary On
Versions: 1 2 3 4 5 6 7 8 9 10 11 12 13 14 15 16
000
FTUS43 KGLD 232334
TAFGLD
TAF
KGLD 232334Z 2400/2424 13015KT P6SM SKC
     FM240600 11008KT 6SM BR OVC010
     FM240900 VRB06KT 2SM -FZDZ BR OVC007
      TEMPO 2413/2417 1/2SM SN OVC005
     FM241700 33024G32KT P6SM SCT090=

USA.gov is the U.S. government's official web portal to all federal, state and local government web resources and services.